createdAt,value
2023-02-28T00:01:35.930Z,103174.53
2023-02-28T00:04:03.023Z,103163.94
2023-02-28T00:06:29.715Z,103167.50
2023-02-28T00:08:56.923Z,103189.72
2023-02-28T00:11:26.093Z,103151.53
2023-02-28T00:13:52.709Z,103166.66
2023-02-28T00:16:22.136Z,103182.59
2023-02-28T00:18:49.220Z,103188.00
2023-02-28T00:21:17.224Z,103172.06
2023-02-28T00:23:44.678Z,103173.81
2023-02-28T00:26:13.867Z,103183.56
2023-02-28T00:28:40.477Z,103176.41
2023-02-28T00:31:07.171Z,103185.38
2023-02-28T00:33:36.521Z,103156.09
2023-02-28T00:36:08.435Z,103187.19
2023-02-28T00:38:37.749Z,103164.19
2023-02-28T00:41:08.225Z,103116.28
2023-02-28T00:43:39.436Z,103185.47
2023-02-28T00:46:06.463Z,103161.59
2023-02-28T00:48:33.520Z,103130.47
2023-02-28T00:51:00.219Z,103166.75
2023-02-28T00:53:26.906Z,103168.53
2023-02-28T00:55:57.901Z,103177.31
2023-02-28T00:58:24.492Z,103170.28
2023-02-28T01:00:53.735Z,103182.72
2023-02-28T01:03:24.599Z,103167.66
2023-02-28T01:05:51.905Z,103181.88
2023-02-28T01:08:18.475Z,103183.75
2023-02-28T01:10:45.227Z,103189.09
2023-02-28T01:13:13.124Z,103154.47
2023-02-28T01:15:44.511Z,103158.00
2023-02-28T01:18:11.195Z,103149.22
2023-02-28T01:20:38.711Z,103179.44
2023-02-28T01:23:05.258Z,103179.47
2023-02-28T01:25:31.965Z,103192.06
2023-02-28T01:28:00.971Z,103199.97
2023-02-28T01:30:27.654Z,103166.19
2023-02-28T01:32:54.591Z,103197.25
2023-02-28T01:35:21.577Z,103193.69
2023-02-28T01:37:48.139Z,103161.69
2023-02-28T01:40:15.966Z,103189.13
2023-02-28T01:42:44.829Z,103087.19
2023-02-28T01:45:28.245Z,103188.13
2023-02-28T01:48:08.960Z,103191.63
2023-02-28T01:50:42.559Z,103158.69
2023-02-28T01:53:19.044Z,103180.81
2023-02-28T01:55:49.346Z,103174.47
2023-02-28T01:58:16.823Z,103143.31
2023-02-28T02:00:43.801Z,103174.34
2023-02-28T02:03:17.453Z,103149.44
2023-02-28T02:05:48.494Z,103144.06
2023-02-28T02:08:22.199Z,103168.81
2023-02-28T02:11:02.075Z,103165.16
2023-02-28T02:13:59.645Z,103158.06
2023-02-28T02:16:55.074Z,103162.41
2023-02-28T02:19:43.744Z,103155.19
2023-02-28T02:22:22.789Z,103136.59
2023-02-28T02:25:08.194Z,103161.34
2023-02-28T02:28:04.738Z,103153.31
2023-02-28T02:30:55.717Z,103172.94
2023-02-28T02:33:46.803Z,103163.94
2023-02-28T02:36:30.954Z,103125.81
2023-02-28T02:39:32.916Z,103154.13
2023-02-28T02:42:04.717Z,103133.72
2023-02-28T02:44:45.592Z,103167.41
2023-02-28T02:47:18.944Z,103162.06
2023-02-28T02:49:53.683Z,103168.25
2023-02-28T02:52:25.108Z,103100.00
2023-02-28T02:54:57.830Z,103152.28
2023-02-28T02:57:32.703Z,103138.94
2023-02-28T03:00:01.526Z,103091.97
2023-02-28T03:02:35.433Z,103161.91
2023-02-28T03:05:07.706Z,103147.69
2023-02-28T03:07:34.311Z,103136.91
2023-02-28T03:10:00.908Z,103164.44
2023-02-28T03:12:42.581Z,103138.69
2023-02-28T03:15:27.877Z,103151.78
2023-02-28T03:17:56.764Z,103166.84
2023-02-28T03:20:35.444Z,103148.91
2023-02-28T03:23:11.029Z,103142.59
2023-02-28T03:26:02.427Z,103155.06
2023-02-28T03:28:54.799Z,103154.06
2023-02-28T03:31:31.563Z,103154.00
2023-02-28T03:34:20.823Z,103140.66
2023-02-28T03:36:54.861Z,103161.06
2023-02-28T03:39:57.266Z,103166.41
2023-02-28T03:42:30.663Z,103156.53
2023-02-28T03:45:20.932Z,103134.31
2023-02-28T03:47:56.370Z,103173.38
2023-02-28T03:50:28.228Z,103166.22
2023-02-28T03:53:02.469Z,103164.31
2023-02-28T03:55:36.566Z,103137.72
2023-02-28T03:58:13.527Z,103165.19
2023-02-28T04:00:47.480Z,103163.47
2023-02-28T04:03:17.351Z,103136.81
2023-02-28T04:05:54.035Z,103159.81
2023-02-28T04:08:23.777Z,103156.19
2023-02-28T04:11:02.494Z,103156.19
2023-02-28T04:13:31.346Z,103137.56
2023-02-28T04:15:57.969Z,103135.78
2023-02-28T04:18:24.718Z,103120.69
2023-02-28T04:20:53.848Z,103130.41
2023-02-28T04:23:20.529Z,103158.81
2023-02-28T04:25:47.062Z,103133.16
2023-02-28T04:28:16.209Z,103166.84
2023-02-28T04:30:44.842Z,103153.56
2023-02-28T04:33:13.916Z,103175.75
2023-02-28T04:35:40.584Z,103164.13
2023-02-28T04:38:07.224Z,103170.34
2023-02-28T04:40:33.840Z,103165.00
2023-02-28T04:43:05.271Z,103141.13
2023-02-28T04:45:34.930Z,103137.50
2023-02-28T04:48:01.534Z,103147.22
2023-02-28T04:50:28.165Z,103172.09
2023-02-28T04:52:55.660Z,103158.75
2023-02-28T04:55:25.203Z,103173.78
2023-02-28T04:57:51.781Z,103183.63
2023-02-28T05:00:18.703Z,103171.09
2023-02-28T05:02:45.306Z,103143.69
2023-02-28T05:05:13.077Z,103181.72
2023-02-28T05:07:39.604Z,103182.56
2023-02-28T05:10:06.664Z,103160.41
2023-02-28T05:12:33.260Z,103190.56
2023-02-28T05:14:59.905Z,103187.88
2023-02-28T05:17:31.261Z,103123.38
2023-02-28T05:20:13.440Z,103187.84
2023-02-28T05:22:45.013Z,103161.34
2023-02-28T05:25:18.783Z,103195.84
2023-02-28T05:27:45.529Z,103155.84
2023-02-28T05:30:12.443Z,103170.00
2023-02-28T05:32:45.365Z,103179.69
2023-02-28T05:35:12.886Z,103147.06
2023-02-28T05:37:40.079Z,103187.88
2023-02-28T05:40:08.697Z,103180.72
2023-02-28T05:42:37.883Z,103190.44
2023-02-28T05:45:08.014Z,103153.13
2023-02-28T05:47:35.646Z,103180.53
2023-02-28T05:50:05.264Z,103160.16
2023-02-28T05:52:32.405Z,103186.78
2023-02-28T05:54:59.341Z,103175.19
2023-02-28T05:57:25.938Z,103158.38
2023-02-28T05:59:52.580Z,103164.63
2023-02-28T06:02:19.296Z,103123.94
2023-02-28T06:04:46.675Z,103163.75
2023-02-28T06:07:13.453Z,103175.22
2023-02-28T06:09:42.641Z,103183.22
2023-02-28T06:12:10.837Z,103176.84
2023-02-28T06:14:37.394Z,103168.94
2023-02-28T06:17:06.798Z,103189.47
2023-02-28T06:19:35.787Z,103184.03
2023-02-28T06:22:04.610Z,103188.66
2023-02-28T06:24:32.306Z,103192.97
2023-02-28T06:27:05.905Z,103152.19
2023-02-28T06:29:43.127Z,103195.59
2023-02-28T06:32:10.947Z,103197.31
2023-02-28T06:34:48.348Z,103183.84
2023-02-28T06:37:17.222Z,103192.88
2023-02-28T06:39:44.128Z,103192.03
2023-02-28T06:42:10.897Z,103191.06
2023-02-28T06:44:39.418Z,103199.00
2023-02-28T06:47:08.370Z,103204.31
2023-02-28T06:49:36.019Z,103194.50
2023-02-28T06:52:03.792Z,103205.06
2023-02-28T06:54:30.410Z,103211.44
2023-02-28T06:56:59.682Z,103220.16
2023-02-28T06:59:26.506Z,103206.69
2023-02-28T07:01:54.475Z,103208.31
2023-02-28T07:04:22.558Z,103209.34
2023-02-28T07:06:52.289Z,103220.84
2023-02-28T07:09:20.184Z,103223.38
2023-02-28T07:11:46.819Z,103224.00
2023-02-28T07:14:14.002Z,103214.16
2023-02-28T07:16:42.933Z,103229.97
2023-02-28T07:19:09.519Z,103217.91
2023-02-28T07:21:36.091Z,103210.88
2023-02-28T07:24:05.335Z,103206.97
2023-02-28T07:26:35.220Z,103219.81
2023-02-28T07:29:08.798Z,103229.16
2023-02-28T07:31:55.307Z,103229.50
2023-02-28T07:34:36.276Z,103230.13
2023-02-28T07:37:05.276Z,103231.50
2023-02-28T07:39:32.988Z,103223.47
2023-02-28T07:42:00.710Z,103224.28
2023-02-28T07:44:27.854Z,103234.91
2023-02-28T07:46:57.247Z,103237.63
2023-02-28T07:49:24.824Z,103239.09
2023-02-28T07:51:52.551Z,103250.81
2023-02-28T07:54:21.861Z,103240.97
2023-02-28T07:56:48.570Z,103225.91
2023-02-28T07:59:15.436Z,103256.16
2023-02-28T08:01:52.685Z,103235.50
2023-02-28T08:04:20.150Z,103253.03
2023-02-28T08:06:48.867Z,103243.06
2023-02-28T08:09:17.224Z,103243.19
2023-02-28T08:11:46.245Z,103244.75
2023-02-28T08:14:12.881Z,103229.66
2023-02-28T08:16:39.830Z,103228.44
2023-02-28T08:19:06.472Z,103242.63
2023-02-28T08:21:37.444Z,103236.09
2023-02-28T08:24:07.957Z,103250.50
2023-02-28T08:26:35.884Z,103250.31
2023-02-28T08:29:03.159Z,103221.53
2023-02-28T08:31:34.286Z,103245.03
2023-02-28T08:34:01.102Z,103233.38
2023-02-28T08:36:29.860Z,103211.63
2023-02-28T08:38:57.820Z,103206.75
2023-02-28T08:41:24.464Z,103236.38
2023-02-28T08:43:54.619Z,103229.81
2023-02-28T08:46:21.952Z,103241.94
2023-02-28T08:48:48.509Z,103229.66
2023-02-28T08:51:20.186Z,103237.38
2023-02-28T08:54:09.750Z,103246.81
2023-02-28T08:56:38.022Z,103251.47
2023-02-28T08:59:13.320Z,103242.53
2023-02-28T09:01:43.003Z,103241.69
2023-02-28T09:04:19.853Z,103247.81
2023-02-28T09:06:51.912Z,103243.38
2023-02-28T09:09:22.883Z,103250.63
2023-02-28T09:11:50.283Z,103236.31
2023-02-28T09:14:21.081Z,103244.22
2023-02-28T09:16:48.995Z,103247.13
2023-02-28T09:19:15.889Z,103243.78
2023-02-28T09:21:43.067Z,103231.47
2023-02-28T09:24:15.725Z,103244.66
2023-02-28T09:26:43.100Z,103239.53
2023-02-28T09:29:18.534Z,103248.53
2023-02-28T09:31:45.545Z,103244.38
2023-02-28T09:34:14.705Z,103232.78
2023-02-28T09:36:45.614Z,103219.88
2023-02-28T09:39:13.794Z,103235.47
2023-02-28T09:41:51.436Z,103254.50
2023-02-28T09:44:25.956Z,103217.38
2023-02-28T09:46:57.114Z,103233.25
2023-02-28T09:49:36.170Z,103242.88
2023-02-28T09:52:05.183Z,103238.97
2023-02-28T09:54:33.828Z,103183.91
2023-02-28T09:57:10.904Z,103240.38
2023-02-28T10:00:08.310Z,103238.53
2023-02-28T10:02:52.506Z,103225.13
2023-02-28T10:05:23.896Z,103227.63
2023-02-28T10:07:50.474Z,103239.88
2023-02-28T10:10:29.601Z,103204.03
2023-02-28T10:13:00.219Z,103226.81
2023-02-28T10:15:31.403Z,103236.91
2023-02-28T10:18:09.168Z,103214.06
2023-02-28T10:20:42.138Z,103225.03
2023-02-28T10:23:11.939Z,103223.59
2023-02-28T10:25:39.634Z,103209.63
2023-02-28T10:28:14.886Z,103228.84
2023-02-28T10:30:46.283Z,103216.97
2023-02-28T10:33:20.007Z,103214.47
2023-02-28T10:35:51.840Z,103223.91
2023-02-28T10:38:34.203Z,103213.59
2023-02-28T10:41:08.167Z,103215.97
2023-02-28T10:43:39.632Z,103214.47
2023-02-28T10:46:15.622Z,103217.53
2023-02-28T10:49:07.073Z,103199.50
2023-02-28T10:51:44.346Z,103190.97
2023-02-28T10:54:22.826Z,103215.25
2023-02-28T10:57:17.828Z,103212.53
2023-02-28T10:59:45.577Z,103190.28
2023-02-28T11:02:30.457Z,103200.34
2023-02-28T11:04:57.267Z,103194.78
2023-02-28T11:07:27.799Z,103165.78
2023-02-28T11:09:59.292Z,103108.25
2023-02-28T11:12:46.903Z,103192.44
2023-02-28T11:15:30.641Z,103191.13
2023-02-28T11:18:09.822Z,103166.72
2023-02-28T11:20:39.680Z,103182.25
2023-02-28T11:23:12.861Z,103191.00
2023-02-28T11:25:40.189Z,103183.59
2023-02-28T11:28:25.351Z,103175.53
2023-02-28T11:31:04.177Z,103185.41
2023-02-28T11:33:48.494Z,103179.91
2023-02-28T11:36:25.741Z,103177.25
2023-02-28T11:39:13.420Z,103148.22
2023-02-28T11:42:16.613Z,103150.25
2023-02-28T11:44:45.956Z,103168.94
2023-02-28T11:47:27.743Z,103177.91
2023-02-28T11:50:23.745Z,103169.31
2023-02-28T11:53:04.056Z,103166.16
2023-02-28T11:55:53.057Z,103174.16
2023-02-28T11:58:34.807Z,103142.25
2023-02-28T12:01:11.061Z,103169.91
2023-02-28T12:03:49.950Z,103160.59
2023-02-28T12:06:20.004Z,103157.53
2023-02-28T12:08:58.670Z,103149.38
2023-02-28T12:11:57.074Z,103157.06
2023-02-28T12:14:55.937Z,103160.00
2023-02-28T12:17:25.493Z,103077.75
2023-02-28T12:20:06.503Z,103127.28
2023-02-28T12:22:36.517Z,103140.91
2023-02-28T12:25:42.414Z,103142.63
2023-02-28T12:28:16.249Z,103135.41
2023-02-28T12:30:57.983Z,103148.00
2023-02-28T12:33:35.480Z,103132.91
2023-02-28T12:36:11.404Z,103137.44
2023-02-28T12:39:01.235Z,103132.53
2023-02-28T12:41:38.121Z,103128.56
2023-02-28T12:44:12.500Z,103120.63
2023-02-28T12:46:56.994Z,103130.69
2023-02-28T12:49:43.381Z,103104.19
2023-02-28T12:52:27.119Z,103122.50
2023-02-28T12:55:10.917Z,103098.06
2023-02-28T12:57:41.653Z,103109.84
2023-02-28T13:00:20.725Z,103103.41
2023-02-28T13:02:57.686Z,103114.41
2023-02-28T13:06:03.204Z,103109.13
2023-02-28T13:09:06.033Z,103082.25
2023-02-28T13:11:42.342Z,103057.19
2023-02-28T13:14:28.676Z,103090.34
2023-02-28T13:17:03.345Z,103085.13
2023-02-28T13:19:49.870Z,103084.25
2023-02-28T13:22:45.559Z,103079.84
2023-02-28T13:25:26.621Z,103077.84
2023-02-28T13:28:01.926Z,103080.06
2023-02-28T13:30:57.054Z,103076.31
2023-02-28T13:33:29.939Z,103069.34
2023-02-28T13:36:31.767Z,103051.53
2023-02-28T13:39:05.339Z,103076.31
2023-02-28T13:41:32.530Z,103081.09
2023-02-28T13:44:07.481Z,103060.69
2023-02-28T13:46:38.333Z,103071.75
2023-02-28T13:49:21.790Z,103072.16
2023-02-28T13:51:52.109Z,103076.97
2023-02-28T13:54:47.158Z,103069.06
2023-02-28T13:57:16.257Z,103069.06
2023-02-28T14:00:21.054Z,103063.03
2023-02-28T14:03:13.240Z,103058.63
2023-02-28T14:05:45.799Z,103063.38
2023-02-28T14:08:19.522Z,103059.03
2023-02-28T14:10:52.996Z,103051.88
2023-02-28T14:13:46.365Z,103057.28
2023-02-28T14:16:22.261Z,103053.16
2023-02-28T14:19:12.447Z,103057.44
2023-02-28T14:22:07.582Z,103031.00
2023-02-28T14:24:53.276Z,103051.34
2023-02-28T14:27:42.744Z,103041.56
2023-02-28T14:30:41.233Z,103055.38
2023-02-28T14:36:19.567Z,103053.22
2023-02-28T14:38:56.628Z,103046.06
2023-02-28T14:41:39.341Z,103044.13
2023-02-28T14:44:24.224Z,103050.38
2023-02-28T14:47:08.417Z,103019.34
2023-02-28T14:49:45.240Z,103052.22
2023-02-28T14:52:33.523Z,103049.84
2023-02-28T14:55:05.212Z,103048.97
2023-02-28T14:57:52.762Z,103045.22
2023-02-28T15:00:25.941Z,103046.31
2023-02-28T15:02:55.270Z,103046.31
2023-02-28T15:05:39.816Z,103045.66
2023-02-28T15:08:21.472Z,103045.78
2023-02-28T15:11:00.305Z,103048.56
2023-02-28T15:13:46.181Z,103042.34
2023-02-28T15:19:24.229Z,103047.91
2023-02-28T15:22:06.505Z,103041.66
2023-02-28T15:24:36.127Z,103052.56
2023-02-28T15:27:12.144Z,103031.16
2023-02-28T15:29:47.316Z,103033.03
2023-02-28T15:32:37.004Z,103056.09
2023-02-28T15:35:43.242Z,103055.41
2023-02-28T15:38:29.554Z,103053.66
2023-02-28T15:40:59.740Z,103029.31
2023-02-28T15:43:37.508Z,103044.97
2023-02-28T15:46:05.757Z,103054.19
2023-02-28T15:48:37.143Z,103048.91
2023-02-28T15:51:03.800Z,103041.66
2023-02-28T15:53:34.680Z,103041.78
2023-02-28T15:56:09.460Z,103034.16
2023-02-28T15:58:38.376Z,103035.28
2023-02-28T16:01:10.590Z,103041.78
2023-02-28T16:03:52.891Z,103032.09
2023-02-28T16:06:42.010Z,103045.81
2023-02-28T16:09:19.526Z,103038.91
2023-02-28T16:11:52.969Z,103038.16
2023-02-28T16:14:31.689Z,103018.91
2023-02-28T16:17:11.703Z,103053.84
2023-02-28T16:19:39.859Z,103044.16
2023-02-28T16:22:11.171Z,103040.69
2023-02-28T16:24:42.054Z,103049.00
2023-02-28T16:27:33.263Z,103038.34
2023-02-28T16:30:08.156Z,103015.00
2023-02-28T16:32:39.180Z,103045.13
2023-02-28T16:35:25.242Z,103054.22
2023-02-28T16:37:56.085Z,103038.38
2023-02-28T16:40:26.568Z,103042.91
2023-02-28T16:42:59.562Z,103045.94
2023-02-28T16:45:31.692Z,103050.63
2023-02-28T16:47:59.532Z,103056.22
2023-02-28T16:50:31.446Z,103059.19
2023-02-28T16:52:59.357Z,103051.31
2023-02-28T16:55:46.480Z,103061.38
2023-02-28T16:58:32.238Z,103058.91
2023-02-28T17:01:01.395Z,103047.84
2023-02-28T17:03:33.685Z,103051.41
2023-02-28T17:06:01.946Z,103057.16
2023-02-28T17:08:52.818Z,103068.03
2023-02-28T17:11:23.491Z,103078.34
2023-02-28T17:13:55.163Z,103075.91
2023-02-28T17:16:35.957Z,103076.13
2023-02-28T17:19:06.090Z,103087.16
2023-02-28T17:21:34.440Z,103093.75
2023-02-28T17:24:22.246Z,103070.97
2023-02-28T17:26:53.330Z,103085.59
2023-02-28T17:29:22.844Z,103108.00
2023-02-28T17:31:49.551Z,103088.72
2023-02-28T17:34:19.342Z,103098.63
2023-02-28T17:36:49.712Z,103105.75
2023-02-28T17:39:24.872Z,103113.03
2023-02-28T17:41:56.137Z,103112.41
2023-02-28T17:44:24.916Z,103121.50
2023-02-28T17:46:52.878Z,103099.50
2023-02-28T17:49:19.917Z,103106.78
2023-02-28T17:51:47.379Z,103122.75
2023-02-28T17:54:15.079Z,103116.72
2023-02-28T17:56:44.031Z,103091.75
2023-02-28T17:59:11.468Z,103124.63
2023-02-28T18:01:38.170Z,103115.25
2023-02-28T18:04:04.982Z,103139.63
2023-02-28T18:06:52.312Z,103133.56
2023-02-28T18:09:23.447Z,103128.66
2023-02-28T18:11:55.147Z,103145.66
2023-02-28T18:14:24.532Z,103145.84
2023-02-28T18:16:51.731Z,103149.63
2023-02-28T18:19:18.831Z,103131.16
2023-02-28T18:21:50.609Z,103126.78
2023-02-28T18:24:19.256Z,103134.75
2023-02-28T18:26:46.171Z,103126.13
2023-02-28T18:29:25.052Z,103122.75
2023-02-28T18:31:53.024Z,103130.94
2023-02-28T18:34:21.206Z,103135.56
2023-02-28T18:36:48.826Z,103118.97
2023-02-28T18:39:20.743Z,103140.38
2023-02-28T18:41:47.525Z,103133.50
2023-02-28T18:44:20.317Z,103136.28
2023-02-28T18:46:49.048Z,103131.16
2023-02-28T18:49:15.849Z,103145.63
2023-02-28T18:51:46.623Z,103142.22
2023-02-28T18:54:14.543Z,103137.94
2023-02-28T18:56:41.294Z,103137.31
2023-02-28T18:59:15.221Z,103141.78
2023-02-28T19:01:44.568Z,103133.13
2023-02-28T19:04:13.937Z,103139.06
2023-02-28T19:06:42.089Z,103137.28
2023-02-28T19:09:09.716Z,103109.31
2023-02-28T19:11:36.891Z,103142.13
2023-02-28T19:14:03.555Z,103129.53
2023-02-28T19:16:32.825Z,103134.81
2023-02-28T19:19:01.861Z,103150.09
2023-02-28T19:21:28.512Z,103130.94
2023-02-28T19:23:55.153Z,103153.31
2023-02-28T19:26:25.162Z,103137.34
2023-02-28T19:28:51.761Z,103128.75
2023-02-28T19:31:24.190Z,103152.75
2023-02-28T19:33:53.587Z,103160.94
2023-02-28T19:36:21.065Z,103162.84
2023-02-28T19:38:48.194Z,103171.97
2023-02-28T19:41:16.650Z,103153.34
2023-02-28T19:43:43.572Z,103169.53
2023-02-28T19:46:11.922Z,103166.09
2023-02-28T19:48:42.498Z,103146.72
2023-02-28T19:51:13.477Z,103159.22
2023-02-28T19:53:41.684Z,103170.72
2023-02-28T19:56:09.383Z,103178.81
2023-02-28T19:58:39.333Z,103149.56
2023-02-28T20:01:14.901Z,103185.22
2023-02-28T20:03:42.201Z,103176.34
2023-02-28T20:06:13.696Z,103164.06
2023-02-28T20:08:40.589Z,103166.81
2023-02-28T20:11:10.438Z,103170.34
2023-02-28T20:13:37.356Z,103161.66
2023-02-28T20:16:07.100Z,103174.09
2023-02-28T20:18:36.648Z,103161.84
2023-02-28T20:21:08.557Z,103169.00
2023-02-28T20:23:35.496Z,103171.78
2023-02-28T20:26:02.294Z,103162.97
2023-02-28T20:28:28.915Z,103164.75
2023-02-28T20:30:55.926Z,103155.09
2023-02-28T20:33:22.881Z,103184.34
2023-02-28T20:35:52.672Z,103183.47
2023-02-28T20:38:21.915Z,103175.53
2023-02-28T20:40:48.571Z,103158.75
2023-02-28T20:43:17.563Z,103156.25
2023-02-28T20:45:51.736Z,103158.03
2023-02-28T20:48:20.648Z,103143.00
2023-02-28T20:50:52.117Z,103173.22
2023-02-28T20:53:19.285Z,103178.56
2023-02-28T20:56:00.564Z,103175.97
2023-02-28T20:58:34.126Z,103179.63
2023-02-28T21:01:26.479Z,103178.72
2023-02-28T21:03:58.772Z,103179.66
2023-02-28T21:06:33.130Z,103099.06
2023-02-28T21:09:07.950Z,103163.78
2023-02-28T21:11:39.396Z,103162.91
2023-02-28T21:14:11.369Z,103186.09
2023-02-28T21:16:40.522Z,103157.84
2023-02-28T21:19:07.242Z,103173.84
2023-02-28T21:21:43.827Z,103121.63
2023-02-28T21:24:14.426Z,103176.63
2023-02-28T21:26:42.141Z,103178.41
2023-02-28T21:29:14.844Z,103178.53
2023-02-28T21:31:41.570Z,103184.75
2023-02-28T21:34:11.454Z,103183.03
2023-02-28T21:36:41.077Z,103176.81
2023-02-28T21:39:19.293Z,103171.50
2023-02-28T21:41:48.290Z,103178.66
2023-02-28T21:44:24.057Z,103163.59
2023-02-28T21:46:54.927Z,103176.94
2023-02-28T21:49:25.439Z,103164.59
2023-02-28T21:51:52.142Z,103117.56
2023-02-28T21:54:18.815Z,103174.31
2023-02-28T21:56:50.490Z,103147.72
2023-02-28T21:59:17.974Z,103170.84
2023-02-28T22:01:45.396Z,103158.41
2023-02-28T22:04:23.553Z,103188.66
2023-02-28T22:06:57.265Z,103186.94
2023-02-28T22:09:28.916Z,103182.53
2023-02-28T22:11:58.428Z,103168.47
2023-02-28T22:14:25.152Z,103195.13
2023-02-28T22:16:56.930Z,103151.69
2023-02-28T22:19:24.539Z,103188.16
2023-02-28T22:21:53.713Z,103191.69
2023-02-28T22:24:24.637Z,103184.75
2023-02-28T22:26:52.226Z,103149.31
2023-02-28T22:29:19.041Z,103135.06
2023-02-28T22:31:45.865Z,103200.69
2023-02-28T22:34:13.057Z,103153.63
2023-02-28T22:36:43.595Z,103198.94
2023-02-28T22:39:13.599Z,103197.09
2023-02-28T22:41:40.624Z,103186.44
2023-02-28T22:44:07.535Z,103188.19
2023-02-28T22:46:37.488Z,103191.72
2023-02-28T22:49:07.830Z,103171.44
2023-02-28T22:51:35.131Z,103200.66
2023-02-28T22:54:02.260Z,103207.75
2023-02-28T22:56:30.785Z,103199.78
2023-02-28T22:58:59.886Z,103211.38
2023-02-28T23:01:29.667Z,103198.97
2023-02-28T23:03:57.157Z,103188.34
2023-02-28T23:06:25.254Z,103184.03
2023-02-28T23:08:56.056Z,103206.22
2023-02-28T23:11:34.052Z,103213.44
2023-02-28T23:14:01.140Z,103206.28
2023-02-28T23:16:45.065Z,103202.72
2023-02-28T23:19:22.038Z,103208.97
2023-02-28T23:21:51.149Z,103203.56
2023-02-28T23:24:21.326Z,103204.44
2023-02-28T23:26:51.153Z,103167.19
2023-02-28T23:29:22.893Z,103135.25
2023-02-28T23:31:50.520Z,103173.44
2023-02-28T23:34:24.816Z,103200.09
2023-02-28T23:36:52.058Z,103195.75
2023-02-28T23:39:19.690Z,103202.03
2023-02-28T23:41:46.816Z,103206.47
2023-02-28T23:44:16.881Z,103121.41
2023-02-28T23:46:49.325Z,103206.59
2023-02-28T23:49:19.969Z,103191.50
2023-02-28T23:51:49.395Z,103177.34
2023-02-28T23:54:17.443Z,103178.22
2023-02-28T23:56:44.772Z,103206.69
2023-02-28T23:59:14.260Z,103209.34
